createdAt,value
2023-04-26T00:03:00.852Z,3.00
2023-04-26T00:08:05.634Z,2.91
2023-04-26T00:13:08.459Z,2.95
2023-04-26T00:18:12.549Z,2.87
2023-04-26T00:23:17.445Z,2.86
2023-04-26T00:28:20.650Z,2.87
2023-04-26T00:33:23.479Z,2.94
2023-04-26T00:38:27.635Z,2.96
2023-04-26T00:43:30.411Z,2.87
2023-04-26T00:48:34.175Z,2.84
2023-04-26T00:53:38.482Z,2.80
2023-04-26T00:58:41.322Z,2.74
2023-04-26T01:03:46.914Z,2.66
2023-04-26T01:08:53.430Z,2.59
2023-04-26T01:13:58.473Z,2.44
2023-04-26T01:19:09.477Z,2.36
2023-04-26T01:24:14.716Z,2.31
2023-04-26T01:29:19.097Z,2.20
2023-04-26T01:34:21.810Z,2.24
2023-04-26T01:39:25.835Z,2.17
2023-04-26T01:44:28.561Z,2.12
2023-04-26T01:49:31.411Z,1.97
2023-04-26T01:54:35.676Z,1.88
2023-04-26T01:59:38.431Z,1.82
2023-04-26T02:04:41.309Z,1.76
2023-04-26T02:09:46.473Z,1.71
2023-04-26T02:14:49.258Z,1.69
2023-04-26T02:19:52.031Z,1.66
2023-04-26T02:24:56.376Z,1.60
2023-04-26T02:30:03.866Z,1.56
2023-04-26T02:35:07.766Z,1.54
2023-04-26T02:40:13.305Z,1.34
2023-04-26T02:45:17.102Z,1.24
2023-04-26T02:50:20.009Z,1.26
2023-04-26T02:55:24.991Z,1.27
2023-04-26T03:00:28.510Z,1.25
2023-04-26T03:05:31.418Z,1.17
2023-04-26T03:10:35.643Z,1.21
2023-04-26T03:15:38.565Z,1.10
2023-04-26T03:20:41.923Z,1.11
2023-04-26T03:25:47.183Z,1.11
2023-04-26T03:30:50.374Z,1.06
2023-04-26T03:35:53.626Z,1.05
2023-04-26T03:40:58.259Z,1.00
2023-04-26T03:46:02.252Z,0.94
2023-04-26T03:51:05.187Z,0.89
2023-04-26T03:56:09.795Z,0.88
2023-04-26T04:01:13.652Z,0.85
2023-04-26T04:06:17.234Z,0.74
2023-04-26T04:11:21.393Z,0.69
2023-04-26T04:16:24.162Z,0.69
2023-04-26T04:21:27.849Z,0.62
2023-04-26T04:26:32.927Z,0.58
2023-04-26T04:31:36.361Z,0.61
2023-04-26T04:36:40.690Z,0.64
2023-04-26T04:41:48.152Z,0.74
2023-04-26T04:46:52.592Z,0.87
2023-04-26T04:51:57.483Z,0.90
2023-04-26T04:57:03.185Z,0.98
2023-04-26T05:02:07.290Z,1.02
2023-04-26T05:07:10.441Z,1.13
2023-04-26T05:12:16.632Z,1.19
2023-04-26T05:17:19.573Z,1.29
2023-04-26T05:22:23.062Z,1.42
2023-04-26T05:27:29.391Z,1.62
2023-04-26T05:32:51.223Z,1.80
2023-04-26T05:38:09.159Z,2.09
2023-04-26T05:43:14.151Z,2.30
2023-04-26T05:48:19.347Z,2.67
2023-04-26T05:53:24.173Z,3.11
2023-04-26T05:58:28.319Z,3.50
2023-04-26T06:03:32.212Z,4.01
2023-04-26T06:08:39.171Z,4.44
2023-04-26T06:13:44.147Z,5.09
2023-04-26T06:18:47.970Z,5.33
2023-04-26T06:23:51.435Z,5.57
2023-04-26T06:28:57.467Z,5.64
2023-04-26T06:34:00.275Z,6.18
2023-04-26T06:39:04.088Z,6.35
2023-04-26T06:44:09.590Z,6.79
2023-04-26T06:49:20.056Z,7.16
2023-04-26T06:54:24.174Z,7.34
2023-04-26T06:59:28.284Z,7.46
2023-04-26T07:04:32.436Z,7.67
2023-04-26T07:09:35.735Z,7.95
2023-04-26T07:14:43.372Z,8.02
2023-04-26T07:19:46.242Z,8.25
2023-04-26T07:24:48.987Z,7.92
2023-04-26T07:29:56.598Z,7.96
2023-04-26T07:35:00.288Z,7.88
2023-04-26T07:40:07.739Z,8.71
2023-04-26T07:45:14.802Z,9.22
2023-04-26T07:50:17.810Z,9.04
2023-04-26T07:55:20.506Z,8.77
2023-04-26T08:00:27.105Z,9.18
2023-04-26T08:05:30.045Z,9.92
2023-04-26T08:10:33.057Z,9.72
2023-04-26T08:15:37.246Z,9.52
2023-04-26T08:20:40.068Z,9.42
2023-04-26T08:25:42.743Z,9.28
2023-04-26T08:30:46.944Z,9.77
2023-04-26T08:35:49.862Z,9.98
2023-04-26T08:40:54.453Z,10.53
2023-04-26T08:46:00.272Z,10.33
2023-04-26T08:51:06.508Z,10.04
2023-04-26T08:56:13.298Z,10.39
2023-04-26T09:01:21.586Z,10.85
2023-04-26T09:06:25.418Z,10.74
2023-04-26T09:11:28.379Z,10.53
2023-04-26T09:16:40.009Z,10.52
2023-04-26T09:28:01.879Z,10.54
2023-04-26T09:33:07.934Z,11.34
2023-04-26T09:38:14.267Z,11.16
2023-04-26T09:43:18.631Z,10.94
2023-04-26T09:48:26.420Z,10.59
2023-04-26T09:53:32.392Z,10.46
2023-04-26T09:58:36.410Z,10.47
2023-04-26T10:03:41.892Z,10.50
2023-04-26T10:08:45.760Z,11.25
2023-04-26T10:13:52.067Z,11.46
2023-04-26T10:19:00.025Z,11.12
2023-04-26T10:24:02.914Z,11.51
2023-04-26T10:29:05.863Z,11.87
2023-04-26T10:34:23.902Z,12.06
2023-04-26T10:39:28.217Z,11.68
2023-04-26T10:44:49.926Z,12.11
2023-04-26T10:49:55.404Z,12.61
2023-04-26T10:55:00.617Z,12.74
2023-04-26T11:00:23.892Z,13.53
2023-04-26T11:05:38.416Z,13.59
2023-04-26T11:10:42.696Z,13.87
2023-04-26T11:15:52.005Z,13.11
2023-04-26T11:20:56.775Z,13.02
2023-04-26T11:26:00.355Z,13.16
2023-04-26T11:31:04.432Z,13.00
2023-04-26T11:36:10.421Z,13.84
2023-04-26T11:41:13.507Z,11.97
2023-04-26T11:46:16.654Z,13.86
2023-04-26T11:51:23.128Z,14.87
2023-04-26T11:56:26.830Z,15.50
2023-04-26T12:01:31.796Z,16.91
2023-04-26T12:06:45.262Z,16.52
2023-04-26T12:11:50.681Z,16.27
2023-04-26T12:16:54.228Z,15.85
2023-04-26T12:21:58.358Z,16.28
2023-04-26T12:27:04.474Z,16.68
2023-04-26T12:32:07.693Z,15.53
2023-04-26T12:37:12.466Z,15.18
2023-04-26T12:42:15.508Z,15.35
2023-04-26T12:47:18.224Z,14.88
2023-04-26T12:52:24.567Z,15.18
2023-04-26T12:57:27.367Z,13.95
2023-04-26T13:02:30.731Z,15.10
2023-04-26T13:07:36.564Z,15.31
2023-04-26T13:12:39.835Z,16.52
2023-04-26T13:17:44.406Z,19.39
2023-04-26T13:22:51.619Z,22.49
2023-04-26T13:27:56.200Z,23.71
2023-04-26T13:33:00.603Z,21.77
2023-04-26T13:38:04.851Z,20.60
2023-04-26T13:43:07.674Z,19.76
2023-04-26T13:48:11.592Z,19.08
2023-04-26T13:53:16.560Z,18.88
2023-04-26T13:58:19.302Z,18.89
2023-04-26T14:03:22.926Z,18.06
2023-04-26T14:08:28.647Z,17.72
2023-04-26T14:13:31.623Z,16.78
2023-04-26T14:18:35.250Z,17.30
2023-04-26T14:23:39.871Z,22.36
2023-04-26T14:28:42.986Z,25.07
2023-04-26T14:33:46.596Z,26.59
2023-04-26T14:38:51.777Z,30.00
2023-04-26T14:43:54.610Z,29.87
2023-04-26T14:48:57.673Z,30.32
2023-04-26T14:54:03.414Z,32.31
2023-04-26T14:59:06.668Z,32.19
2023-04-26T15:04:09.715Z,28.67
2023-04-26T15:09:14.048Z,32.53
2023-04-26T15:14:16.709Z,34.04
2023-04-26T15:19:19.487Z,33.71
2023-04-26T15:24:24.339Z,33.97
2023-04-26T15:29:27.777Z,33.88
2023-04-26T15:34:40.056Z,35.80
2023-04-26T15:39:44.485Z,37.27
2023-04-26T15:44:50.327Z,28.07
2023-04-26T15:49:54.695Z,27.48
2023-04-26T15:54:59.672Z,32.90
2023-04-26T16:00:05.840Z,35.67
2023-04-26T16:05:11.102Z,36.77
2023-04-26T16:10:15.381Z,33.30
2023-04-26T16:15:18.648Z,35.68
2023-04-26T16:20:22.773Z,35.76
2023-04-26T16:25:26.892Z,34.68
2023-04-26T16:30:30.370Z,35.77
2023-04-26T16:35:33.781Z,34.45
2023-04-26T16:40:38.102Z,34.68
2023-04-26T16:45:41.142Z,34.03
2023-04-26T16:50:43.816Z,29.48
2023-04-26T16:55:47.991Z,26.44
2023-04-26T17:00:50.744Z,23.57
2023-04-26T17:05:53.540Z,22.73
2023-04-26T17:10:59.722Z,21.80
2023-04-26T17:16:02.858Z,21.02
2023-04-26T17:21:07.074Z,19.92
2023-04-26T17:26:11.804Z,18.95
2023-04-26T17:31:14.597Z,17.92
2023-04-26T17:36:17.804Z,17.01
2023-04-26T17:41:22.953Z,16.42
2023-04-26T17:46:27.148Z,15.63
2023-04-26T17:51:30.633Z,14.79
2023-04-26T17:56:34.811Z,14.46
2023-04-26T18:01:37.661Z,13.93
2023-04-26T18:06:40.744Z,13.57
2023-04-26T18:11:47.917Z,13.05
2023-04-26T18:16:52.552Z,12.71
2023-04-26T18:21:55.489Z,12.23
2023-04-26T18:26:59.836Z,11.81
2023-04-26T18:32:03.204Z,11.37
2023-04-26T18:37:06.483Z,10.96
2023-04-26T18:42:10.687Z,10.55
2023-04-26T18:47:13.515Z,10.24
2023-04-26T18:52:16.209Z,9.88
2023-04-26T18:57:22.631Z,9.62
2023-04-26T19:02:25.545Z,9.40
2023-04-26T19:07:28.666Z,9.17
2023-04-26T19:12:34.796Z,9.02
2023-04-26T19:17:37.558Z,8.95
2023-04-26T19:22:41.680Z,8.74
2023-04-26T19:27:45.947Z,8.61
2023-04-26T19:32:49.324Z,8.48
2023-04-26T19:37:52.568Z,8.23
2023-04-26T19:42:58.182Z,7.96
2023-04-26T19:48:00.939Z,7.93
2023-04-26T19:53:05.858Z,7.86
2023-04-26T19:58:11.629Z,7.57
2023-04-26T20:03:14.836Z,7.38
2023-04-26T20:08:17.880Z,7.29
2023-04-26T20:13:23.291Z,7.25
2023-04-26T20:18:26.169Z,7.01
2023-04-26T20:23:29.030Z,6.87
2023-04-26T20:28:33.520Z,6.77
2023-04-26T20:33:37.322Z,6.88
2023-04-26T20:38:40.019Z,6.79
2023-04-26T20:43:44.311Z,6.78
2023-04-26T20:48:48.002Z,6.71
2023-04-26T20:53:51.023Z,6.66
2023-04-26T20:58:55.080Z,6.65
2023-04-26T21:03:58.051Z,6.54
2023-04-26T21:09:01.098Z,6.54
2023-04-26T21:14:06.736Z,6.42
2023-04-26T21:19:09.791Z,6.46
2023-04-26T21:24:14.779Z,6.38
2023-04-26T21:29:18.897Z,6.37
2023-04-26T21:34:21.723Z,6.33
2023-04-26T21:39:24.481Z,6.28
2023-04-26T21:44:29.001Z,6.23
2023-04-26T21:49:31.675Z,6.23
2023-04-26T21:54:35.713Z,6.24
2023-04-26T21:59:42.189Z,6.19
2023-04-26T22:04:44.956Z,6.21
2023-04-26T22:09:49.060Z,6.14
2023-04-26T22:14:53.309Z,6.15
2023-04-26T22:19:56.483Z,6.12
2023-04-26T22:24:59.659Z,6.06
2023-04-26T22:30:12.740Z,6.06
2023-04-26T22:35:23.948Z,6.03
2023-04-26T22:40:26.692Z,6.01
2023-04-26T22:45:30.952Z,5.87
2023-04-26T22:50:33.692Z,5.84
2023-04-26T22:55:36.767Z,5.86
2023-04-26T23:00:41.082Z,5.81
2023-04-26T23:05:43.834Z,5.74
2023-04-26T23:10:46.753Z,5.69
2023-04-26T23:15:50.911Z,5.64
2023-04-26T23:20:53.694Z,5.58
2023-04-26T23:25:56.849Z,5.53
2023-04-26T23:31:01.135Z,5.46
2023-04-26T23:36:04.076Z,5.39
2023-04-26T23:41:06.791Z,5.25
2023-04-26T23:46:10.962Z,5.16
2023-04-26T23:51:13.754Z,5.13
2023-04-26T23:56:16.509Z,5.02
